Alexandria, Kentucky
Current Conditions -  °F | °C
As of 5:53 PM on Sunday 21 Dec 2014 (Local Time) from KLUK Reporting Station
Clear Clear  
Wind Chill: 31°   Ceiling: Unl
Heat Index: 31°   Visibility: 10mi
Dew Point: 25°   Wind: 3mph
Humidity: 79%   Direction: 90°E
Pressure: 30.2"   Gusts: NA
Location:  38.96°N, 84.4°W
Report Text: KLUK 212253Z 09003KT 10SM CLR M01/M04 A3020 RMK AO2 SLP230 T10061039
Loading
Personal Weather Stations






























Interactive Weather Map New forecast layout! Learn more

10-Day Weather Forecast

Advertisements
Track Severe Weather on mobile